createdAt,value
2018-01-25T00:01:07.163Z,7.17
2018-01-25T00:03:36.273Z,5.17
2018-01-25T00:06:05.371Z,6.40
2018-01-25T00:08:34.493Z,5.67
2018-01-25T00:11:03.597Z,5.00
2018-01-25T00:13:32.692Z,5.07
2018-01-25T00:16:01.802Z,4.50
2018-01-25T00:18:30.901Z,4.53
2018-01-25T00:21:00.016Z,4.27
2018-01-25T00:23:29.119Z,3.37
2018-01-25T00:25:58.253Z,4.20
2018-01-25T00:28:27.359Z,4.50
2018-01-25T00:30:56.457Z,4.00
2018-01-25T00:33:25.558Z,4.00
2018-01-25T00:35:54.649Z,3.80
2018-01-25T00:38:23.758Z,4.13
2018-01-25T00:40:52.850Z,3.43
2018-01-25T00:43:22.714Z,4.03
2018-01-25T00:45:51.824Z,3.40
2018-01-25T00:48:20.920Z,4.00
2018-01-25T00:50:50.044Z,3.50
2018-01-25T00:53:19.144Z,3.70
2018-01-25T00:55:48.268Z,3.73
2018-01-25T00:58:17.371Z,3.63
2018-01-25T01:00:46.482Z,3.50
2018-01-25T01:03:15.606Z,3.90
2018-01-25T01:05:45.512Z,4.50
2018-01-25T01:08:14.608Z,3.83
2018-01-25T01:10:44.490Z,3.20
2018-01-25T01:13:14.349Z,3.37
2018-01-25T01:15:43.474Z,3.30
2018-01-25T01:18:12.602Z,3.30
2018-01-25T01:20:41.720Z,3.37
2018-01-25T01:23:10.832Z,3.70
2018-01-25T01:25:39.953Z,3.53
2018-01-25T01:28:09.838Z,3.87
2018-01-25T01:30:38.949Z,3.97
2018-01-25T01:33:08.047Z,3.03
2018-01-25T01:35:37.926Z,3.20
2018-01-25T01:38:07.798Z,3.10
2018-01-25T01:40:36.909Z,3.03
2018-01-25T01:43:06.770Z,3.07
2018-01-25T01:45:35.885Z,2.87
2018-01-25T01:48:04.994Z,3.57
2018-01-25T01:50:34.869Z,3.27
2018-01-25T01:53:03.976Z,3.50
2018-01-25T01:55:33.085Z,3.47
2018-01-25T01:58:02.222Z,3.17
2018-01-25T02:00:31.321Z,3.13
2018-01-25T02:03:00.422Z,3.77
2018-01-25T02:05:29.529Z,2.60
2018-01-25T02:07:58.653Z,3.47
2018-01-25T02:10:27.738Z,3.10
2018-01-25T02:12:56.855Z,2.80
2018-01-25T02:15:25.968Z,3.17
2018-01-25T02:17:55.113Z,3.00
2018-01-25T02:20:24.210Z,3.27
2018-01-25T02:22:53.325Z,3.10
2018-01-25T02:25:22.450Z,3.87
2018-01-25T02:27:52.470Z,3.30
2018-01-25T02:30:21.573Z,3.93
2018-01-25T02:32:50.686Z,3.07
2018-01-25T02:35:19.805Z,3.20
2018-01-25T02:37:49.669Z,3.67
2018-01-25T02:40:18.785Z,3.80
2018-01-25T02:42:47.894Z,3.30
2018-01-25T02:45:17.033Z,3.07
2018-01-25T02:47:46.132Z,3.40
2018-01-25T02:50:15.230Z,3.23
2018-01-25T02:52:44.358Z,3.13
2018-01-25T02:55:13.488Z,3.80
2018-01-25T02:57:43.376Z,3.40
2018-01-25T03:00:12.477Z,3.27
2018-01-25T03:02:41.589Z,3.73
2018-01-25T03:05:10.691Z,2.97
2018-01-25T03:07:39.807Z,3.57
2018-01-25T03:10:08.911Z,3.70
2018-01-25T03:12:38.022Z,3.50
2018-01-25T03:15:07.144Z,3.67
2018-01-25T03:17:36.225Z,3.57
2018-01-25T03:20:05.345Z,3.67
2018-01-25T03:22:34.442Z,3.20
2018-01-25T03:25:03.563Z,3.20
2018-01-25T03:27:32.653Z,3.17
2018-01-25T03:30:01.774Z,3.57
2018-01-25T03:32:30.893Z,3.80
2018-01-25T03:34:59.992Z,3.43
2018-01-25T03:37:29.111Z,3.40
2018-01-25T03:39:58.227Z,3.00
2018-01-25T03:42:27.334Z,3.30
2018-01-25T03:44:56.487Z,3.03
2018-01-25T03:47:25.569Z,3.63
2018-01-25T03:49:54.713Z,3.30
2018-01-25T03:52:24.582Z,3.20
2018-01-25T03:54:53.681Z,3.03
2018-01-25T03:57:22.797Z,3.07
2018-01-25T03:59:51.891Z,3.23
2018-01-25T04:02:21.025Z,3.30
2018-01-25T04:04:50.122Z,4.47
2018-01-25T04:07:19.241Z,2.87
2018-01-25T04:09:48.385Z,3.00
2018-01-25T04:12:18.259Z,3.07
2018-01-25T04:14:47.381Z,3.33
2018-01-25T04:17:16.486Z,3.30
2018-01-25T04:19:45.605Z,3.40
2018-01-25T04:22:14.728Z,2.80
2018-01-25T04:24:43.821Z,3.23
2018-01-25T04:27:14.421Z,2.90
2018-01-25T04:29:43.555Z,3.50
2018-01-25T04:32:12.658Z,3.17
2018-01-25T04:34:41.773Z,3.17
2018-01-25T04:37:10.887Z,2.87
2018-01-25T04:39:40.760Z,2.50
2018-01-25T04:42:10.626Z,2.77
2018-01-25T04:44:39.741Z,2.90
2018-01-25T04:47:08.884Z,2.93
2018-01-25T04:49:38.005Z,3.00
2018-01-25T04:52:07.907Z,2.97
2018-01-25T04:54:37.038Z,2.90
2018-01-25T04:57:06.147Z,3.00
2018-01-25T04:59:35.268Z,3.20
2018-01-25T05:02:05.180Z,3.30
2018-01-25T05:04:34.288Z,3.30
2018-01-25T05:07:03.366Z,2.63
2018-01-25T05:09:32.490Z,3.03
2018-01-25T05:12:01.580Z,3.27
2018-01-25T05:14:31.479Z,2.90
2018-01-25T05:17:00.557Z,3.07
2018-01-25T05:19:29.682Z,2.70
2018-01-25T05:21:58.787Z,2.90
2018-01-25T05:24:28.703Z,3.30
2018-01-25T05:26:58.558Z,2.93
2018-01-25T05:29:27.684Z,3.87
2018-01-25T05:31:56.805Z,2.70
2018-01-25T05:34:25.947Z,3.03
2018-01-25T05:36:55.062Z,3.00
2018-01-25T05:39:24.950Z,3.00
2018-01-25T05:41:54.082Z,3.20
2018-01-25T05:44:23.184Z,2.77
2018-01-25T05:46:52.298Z,2.70
2018-01-25T05:49:21.406Z,3.50
2018-01-25T05:51:50.529Z,3.40
2018-01-25T05:54:19.633Z,3.33
2018-01-25T05:56:48.744Z,2.60
2018-01-25T05:59:17.851Z,2.80
2018-01-25T06:01:46.962Z,2.93
2018-01-25T06:04:16.078Z,3.20
2018-01-25T06:06:45.170Z,3.70
2018-01-25T06:09:14.296Z,2.60
2018-01-25T06:11:44.154Z,3.10
2018-01-25T06:14:13.266Z,3.00
2018-01-25T06:16:42.381Z,3.27
2018-01-25T06:19:11.501Z,2.87
2018-01-25T06:21:40.601Z,2.93
2018-01-25T06:24:09.717Z,2.90
2018-01-25T06:26:38.832Z,2.80
2018-01-25T06:29:07.943Z,3.00
2018-01-25T06:31:37.046Z,2.20
2018-01-25T06:34:06.160Z,3.13
2018-01-25T06:36:35.259Z,3.20
2018-01-25T06:39:04.413Z,2.57
2018-01-25T06:41:33.545Z,3.07
2018-01-25T06:44:03.401Z,3.03
2018-01-25T06:46:32.526Z,3.23
2018-01-25T06:49:01.649Z,4.73
2018-01-25T06:51:30.810Z,3.93
2018-01-25T06:53:59.919Z,3.33
2018-01-25T06:56:29.105Z,3.93
2018-01-25T06:58:58.965Z,2.90
2018-01-25T07:01:28.103Z,3.37
2018-01-25T07:03:57.209Z,3.90
2018-01-25T07:06:26.309Z,3.57
2018-01-25T07:08:55.438Z,3.23
2018-01-25T07:11:24.532Z,2.87
2018-01-25T07:13:54.430Z,3.13
2018-01-25T07:16:24.296Z,3.10
2018-01-25T07:18:53.405Z,3.10
2018-01-25T07:21:22.504Z,3.43
2018-01-25T07:23:51.624Z,4.10
2018-01-25T07:26:20.724Z,3.30
2018-01-25T07:28:50.613Z,3.10
2018-01-25T07:31:19.695Z,3.70
2018-01-25T07:33:49.597Z,3.30
2018-01-25T07:36:18.690Z,3.70
2018-01-25T07:38:47.825Z,4.60
2018-01-25T07:41:17.689Z,3.67
2018-01-25T07:43:46.797Z,3.30
2018-01-25T07:46:15.926Z,3.10
2018-01-25T07:48:45.040Z,5.60
2018-01-25T07:51:14.161Z,4.30
2018-01-25T07:53:43.286Z,5.07
2018-01-25T07:56:12.390Z,5.27
2018-01-25T07:58:41.525Z,4.27
2018-01-25T08:01:10.875Z,4.70
2018-01-25T08:03:39.982Z,4.90
2018-01-25T08:06:09.097Z,3.90
2018-01-25T08:08:38.218Z,4.07
2018-01-25T08:11:07.353Z,4.00
2018-01-25T08:13:40.183Z,3.60
2018-01-25T08:16:14.746Z,3.80
2018-01-25T08:18:43.869Z,4.67
2018-01-25T08:21:12.984Z,4.17
2018-01-25T08:23:42.093Z,3.97
2018-01-25T08:26:11.185Z,4.50
2018-01-25T08:28:40.311Z,3.63
2018-01-25T08:31:10.170Z,4.93
2018-01-25T08:33:40.073Z,5.00
2018-01-25T08:36:09.181Z,5.90
2018-01-25T08:38:38.281Z,5.83
2018-01-25T08:41:07.386Z,4.47
2018-01-25T08:43:36.528Z,4.17
2018-01-25T08:46:05.617Z,3.90
2018-01-25T08:48:34.747Z,4.50
2018-01-25T08:51:03.853Z,4.00
2018-01-25T08:53:32.978Z,3.80
2018-01-25T08:56:02.844Z,3.30
2018-01-25T08:58:31.953Z,4.43
2018-01-25T09:01:01.074Z,3.50
2018-01-25T09:03:30.202Z,3.60
2018-01-25T09:05:59.302Z,3.77
2018-01-25T09:08:28.485Z,4.90
2018-01-25T09:10:57.592Z,3.60
2018-01-25T09:13:26.723Z,3.30
2018-01-25T09:15:55.814Z,3.33
2018-01-25T09:18:24.938Z,3.40
2018-01-25T09:20:54.052Z,3.63
2018-01-25T09:23:23.151Z,3.57
2018-01-25T09:25:52.257Z,4.37
2018-01-25T09:28:21.386Z,3.70
2018-01-25T09:30:50.489Z,3.97
2018-01-25T09:33:19.631Z,4.43
2018-01-25T09:35:49.520Z,4.23
2018-01-25T09:38:18.661Z,3.87
2018-01-25T09:40:47.763Z,4.07
2018-01-25T09:43:16.948Z,3.87
2018-01-25T09:45:46.029Z,4.53
2018-01-25T09:48:15.118Z,3.73
2018-01-25T09:50:44.233Z,4.10
2018-01-25T09:53:13.364Z,3.20
2018-01-25T09:55:42.483Z,3.57
2018-01-25T09:58:11.615Z,4.27
2018-01-25T10:00:40.751Z,4.27
2018-01-25T10:03:10.619Z,4.13
2018-01-25T10:05:39.749Z,4.17
2018-01-25T10:08:08.845Z,4.77
2018-01-25T10:10:38.719Z,4.33
2018-01-25T10:13:08.603Z,4.37
2018-01-25T10:15:37.739Z,3.50
2018-01-25T10:18:06.842Z,5.10
2018-01-25T10:20:35.962Z,3.40
2018-01-25T10:23:05.065Z,4.37
2018-01-25T10:25:34.173Z,4.13
2018-01-25T10:28:03.302Z,3.97
2018-01-25T10:30:32.428Z,4.50
2018-01-25T10:33:01.566Z,4.27
2018-01-25T10:35:30.656Z,5.57
2018-01-25T10:37:59.789Z,3.93
2018-01-25T10:40:28.930Z,5.00
2018-01-25T10:42:58.050Z,4.60
2018-01-25T10:45:27.921Z,4.00
2018-01-25T10:47:57.031Z,3.63
2018-01-25T10:50:26.172Z,3.70
2018-01-25T10:52:55.271Z,3.87
2018-01-25T10:55:24.406Z,4.47
2018-01-25T10:57:54.277Z,4.47
2018-01-25T11:00:23.358Z,3.97
2018-01-25T11:02:52.516Z,3.67
2018-01-25T11:05:21.609Z,4.30
2018-01-25T11:07:50.721Z,4.50
2018-01-25T11:10:19.854Z,3.77
2018-01-25T11:15:24.200Z,3.90
2018-01-25T11:17:53.309Z,4.10
2018-01-25T11:20:22.397Z,3.93
2018-01-25T11:22:51.517Z,4.70
2018-01-25T11:25:20.653Z,3.93
2018-01-25T11:27:49.776Z,4.90
2018-01-25T11:30:19.694Z,5.00
2018-01-25T11:32:48.849Z,3.70
2018-01-25T11:35:17.970Z,4.00
2018-01-25T11:37:47.073Z,5.40
2018-01-25T11:40:16.208Z,4.13
2018-01-25T11:42:45.322Z,4.10
2018-01-25T11:45:14.452Z,5.30
2018-01-25T11:47:43.561Z,4.20
2018-01-25T11:50:12.665Z,4.87
2018-01-25T11:52:41.786Z,4.40
2018-01-25T11:55:10.882Z,3.90
2018-01-25T11:57:40.033Z,4.17
2018-01-25T12:00:09.916Z,4.63
2018-01-25T12:02:39.031Z,3.93
2018-01-25T12:05:08.175Z,4.30
2018-01-25T12:07:38.046Z,4.23
2018-01-25T12:10:07.161Z,3.87
2018-01-25T12:12:36.480Z,4.20
2018-01-25T12:15:05.473Z,3.93
2018-01-25T12:17:34.535Z,4.47
2018-01-25T12:20:03.637Z,4.20
2018-01-25T12:22:33.526Z,4.10
2018-01-25T12:25:02.629Z,3.77
2018-01-25T12:27:31.747Z,3.60
2018-01-25T12:30:00.850Z,4.60
2018-01-25T12:32:30.330Z,5.20
2018-01-25T12:35:00.178Z,4.27
2018-01-25T12:37:29.293Z,5.17
2018-01-25T12:39:58.417Z,4.63
2018-01-25T12:42:27.545Z,4.63
2018-01-25T12:44:56.648Z,4.17
2018-01-25T12:47:25.814Z,4.77
2018-01-25T12:49:54.995Z,3.33
2018-01-25T12:52:24.073Z,4.23
2018-01-25T12:54:53.197Z,3.67
2018-01-25T12:57:23.077Z,4.13
2018-01-25T12:59:52.302Z,3.90
2018-01-25T13:02:21.409Z,3.97
2018-01-25T13:04:50.512Z,4.73
2018-01-25T13:07:19.663Z,4.50
2018-01-25T13:09:49.541Z,4.07
2018-01-25T13:12:18.664Z,4.03
2018-01-25T13:14:47.757Z,3.70
2018-01-25T13:17:16.905Z,3.73
2018-01-25T13:19:46.792Z,3.57
2018-01-25T13:22:15.891Z,3.40
2018-01-25T13:24:44.997Z,3.53
2018-01-25T13:27:14.126Z,3.33
2018-01-25T13:29:43.253Z,4.30
2018-01-25T13:32:17.935Z,4.27
2018-01-25T13:34:47.094Z,4.30
2018-01-25T13:37:16.201Z,3.90
2018-01-25T13:39:45.329Z,5.00
2018-01-25T13:42:15.204Z,4.40
2018-01-25T13:44:44.359Z,4.60
2018-01-25T13:47:13.488Z,4.20
2018-01-25T13:49:42.617Z,4.20
2018-01-25T13:55:06.929Z,3.63
2018-01-25T13:57:36.046Z,3.07
2018-01-25T14:00:05.917Z,3.50
2018-01-25T14:02:35.058Z,4.10
2018-01-25T14:05:04.157Z,3.43
2018-01-25T14:07:33.290Z,3.83
2018-01-25T14:10:03.182Z,3.97
2018-01-25T14:12:32.346Z,4.60
2018-01-25T14:15:02.224Z,4.03
2018-01-25T14:17:31.338Z,3.63
2018-01-25T14:20:00.437Z,4.40
2018-01-25T14:22:30.310Z,3.77
2018-01-25T14:24:59.397Z,4.10
2018-01-25T14:27:29.296Z,4.13
2018-01-25T14:29:58.400Z,4.00
2018-01-25T14:32:27.498Z,4.17
2018-01-25T14:34:56.627Z,3.70
2018-01-25T14:37:25.776Z,4.07
2018-01-25T14:39:54.856Z,4.40
2018-01-25T14:42:23.970Z,4.87
2018-01-25T14:44:53.098Z,3.83
2018-01-25T14:47:22.966Z,4.27
2018-01-25T14:49:53.641Z,4.63
2018-01-25T14:52:22.765Z,5.17
2018-01-25T14:54:51.857Z,4.83
2018-01-25T14:57:20.999Z,4.80
2018-01-25T14:59:50.925Z,4.57
2018-01-25T15:02:20.811Z,4.27
2018-01-25T15:04:49.935Z,4.30
2018-01-25T15:07:19.041Z,5.70
2018-01-25T15:09:48.165Z,5.33
2018-01-25T15:12:17.312Z,6.20
2018-01-25T15:14:47.201Z,6.23
2018-01-25T15:17:16.313Z,5.83
2018-01-25T15:19:45.502Z,5.70
2018-01-25T15:22:14.639Z,6.13
2018-01-25T15:24:43.762Z,7.07
2018-01-25T15:27:19.952Z,13.57
2018-01-25T15:29:49.083Z,16.57
2018-01-25T15:32:18.968Z,15.37
2018-01-25T15:34:49.611Z,11.00
2018-01-25T15:37:19.523Z,9.20
2018-01-25T15:39:48.643Z,6.63
2018-01-25T15:42:18.529Z,5.60
2018-01-25T15:44:47.630Z,6.13
2018-01-25T15:47:16.770Z,7.80
2018-01-25T15:49:45.874Z,7.50
2018-01-25T15:52:15.001Z,7.40
2018-01-25T15:54:44.883Z,9.30
2018-01-25T15:57:13.998Z,12.33
2018-01-25T15:59:43.135Z,11.53
2018-01-25T16:02:12.293Z,10.10
2018-01-25T16:04:41.414Z,9.70
2018-01-25T16:07:10.522Z,11.50
2018-01-25T16:09:39.691Z,9.97
2018-01-25T16:12:09.611Z,10.60
2018-01-25T16:14:38.772Z,12.13
2018-01-25T16:17:07.891Z,11.00
2018-01-25T16:19:37.036Z,9.90
2018-01-25T16:22:06.160Z,11.30
2018-01-25T16:24:35.304Z,16.80
2018-01-25T16:27:04.411Z,26.10
2018-01-25T16:29:33.536Z,31.20
2018-01-25T16:32:03.461Z,31.07
2018-01-25T16:34:32.603Z,30.83
2018-01-25T16:37:01.723Z,15.97
2018-01-25T16:39:30.862Z,10.10
2018-01-25T16:41:59.966Z,10.07
2018-01-25T16:44:29.080Z,9.60
2018-01-25T16:46:58.224Z,9.00
2018-01-25T16:49:27.347Z,10.53
2018-01-25T16:51:56.462Z,10.90
2018-01-25T16:54:25.580Z,12.57
2018-01-25T16:56:54.723Z,11.17
2018-01-25T16:59:24.583Z,11.50
2018-01-25T17:01:53.692Z,10.13
2018-01-25T17:04:22.809Z,10.63
2018-01-25T17:06:51.925Z,12.30
2018-01-25T17:09:21.064Z,11.30
2018-01-25T17:11:50.942Z,13.07
2018-01-25T17:14:20.108Z,11.53
2018-01-25T17:16:49.230Z,11.00
2018-01-25T17:19:19.169Z,12.00
2018-01-25T17:21:48.279Z,10.30
2018-01-25T17:24:17.412Z,12.57
2018-01-25T17:26:46.545Z,10.83
2018-01-25T17:29:15.676Z,9.97
2018-01-25T17:31:45.574Z,10.13
2018-01-25T17:34:14.698Z,10.17
2018-01-25T17:36:43.804Z,9.73
2018-01-25T17:39:12.929Z,10.10
2018-01-25T17:41:42.875Z,10.83
2018-01-25T17:44:12.748Z,9.53
2018-01-25T17:46:41.897Z,10.90
2018-01-25T17:49:11.794Z,9.57
2018-01-25T17:51:40.962Z,10.60
2018-01-25T17:54:10.119Z,11.40
2018-01-25T17:56:39.213Z,9.60
2018-01-25T17:59:08.358Z,9.77
2018-01-25T18:01:38.221Z,10.47
2018-01-25T18:04:07.341Z,10.80
2018-01-25T18:06:36.491Z,10.67
2018-01-25T18:09:06.384Z,10.77
2018-01-25T18:11:35.494Z,11.93
2018-01-25T18:14:04.650Z,11.43
2018-01-25T18:16:34.540Z,12.70
2018-01-25T18:19:03.656Z,12.03
2018-01-25T18:21:32.815Z,9.60
2018-01-25T18:24:02.666Z,10.30
2018-01-25T18:26:31.778Z,8.97
2018-01-25T18:29:00.911Z,9.70
2018-01-25T18:31:30.051Z,9.10
2018-01-25T18:33:59.170Z,9.50
2018-01-25T18:36:29.054Z,8.90
2018-01-25T18:38:58.281Z,7.73
2018-01-25T18:41:27.412Z,8.53
2018-01-25T18:43:57.288Z,7.47
2018-01-25T18:46:26.437Z,8.87
2018-01-25T18:48:56.334Z,10.37
2018-01-25T18:51:26.226Z,14.57
2018-01-25T18:53:55.363Z,13.57
2018-01-25T18:56:24.488Z,13.30
2018-01-25T18:58:53.638Z,11.50
2018-01-25T19:01:22.753Z,15.50
2018-01-25T19:03:51.870Z,12.80
2018-01-25T19:06:21.027Z,12.80
2018-01-25T19:08:50.182Z,15.47
2018-01-25T19:11:20.063Z,13.80
2018-01-25T19:13:49.190Z,14.47
2018-01-25T19:16:19.055Z,15.27
2018-01-25T19:18:48.213Z,14.47
2018-01-25T19:21:17.362Z,15.00
2018-01-25T19:23:46.480Z,13.60
2018-01-25T19:26:15.616Z,10.60
2018-01-25T19:28:44.722Z,18.70
2018-01-25T19:31:13.898Z,33.07
2018-01-25T19:33:43.033Z,42.70
2018-01-25T19:36:12.191Z,40.63
2018-01-25T19:38:41.301Z,33.60
2018-01-25T19:41:10.405Z,26.17
2018-01-25T19:43:40.318Z,42.57
2018-01-25T19:46:09.433Z,20.43
2018-01-25T19:48:39.378Z,10.93
2018-01-25T19:51:09.254Z,11.20
2018-01-25T19:53:38.382Z,12.30
2018-01-25T19:56:09.001Z,15.37
2018-01-25T19:58:38.170Z,17.07
2018-01-25T20:01:08.060Z,13.27
2018-01-25T20:03:37.206Z,17.90
2018-01-25T20:06:07.103Z,17.27
2018-01-25T20:08:36.247Z,17.10
2018-01-25T20:11:05.353Z,17.97
2018-01-25T20:13:34.536Z,17.30
2018-01-25T20:16:03.635Z,16.07
2018-01-25T20:18:33.551Z,14.17
2018-01-25T20:21:02.726Z,12.87
2018-01-25T20:23:31.842Z,12.93
2018-01-25T20:26:00.960Z,12.37
2018-01-25T20:28:30.109Z,15.07
2018-01-25T20:30:59.252Z,15.10
2018-01-25T20:33:28.442Z,15.50
2018-01-25T20:35:58.355Z,15.83
2018-01-25T20:38:27.510Z,13.30
2018-01-25T20:40:57.385Z,12.67
2018-01-25T20:43:26.508Z,11.33
2018-01-25T20:45:55.614Z,15.30
2018-01-25T20:48:24.755Z,11.93
2018-01-25T20:50:54.612Z,11.37
2018-01-25T20:53:23.772Z,10.60
2018-01-25T20:55:52.870Z,10.47
2018-01-25T20:58:22.024Z,10.73
2018-01-25T21:00:51.114Z,12.40
2018-01-25T21:03:20.241Z,10.87
2018-01-25T21:05:50.176Z,11.40
2018-01-25T21:08:19.278Z,12.50
2018-01-25T21:10:48.408Z,13.30
2018-01-25T21:13:17.632Z,13.87
2018-01-25T21:15:46.789Z,11.40
2018-01-25T21:18:15.915Z,12.40
2018-01-25T21:20:45.010Z,13.17
2018-01-25T21:23:14.155Z,12.47
2018-01-25T21:25:44.031Z,14.00
2018-01-25T21:28:13.913Z,13.40
2018-01-25T21:30:43.074Z,11.30
2018-01-25T21:33:12.184Z,7.80
2018-01-25T21:35:42.155Z,8.20
2018-01-25T21:38:11.269Z,7.10
2018-01-25T21:40:40.427Z,7.10
2018-01-25T21:43:09.520Z,8.73
2018-01-25T21:45:38.631Z,7.30
2018-01-25T21:48:08.512Z,6.57
2018-01-25T21:50:42.441Z,8.53
2018-01-25T21:53:11.587Z,8.07
2018-01-25T21:55:41.498Z,7.57
2018-01-25T21:58:10.618Z,8.80
2018-01-25T22:00:39.739Z,7.87
2018-01-25T22:03:08.897Z,9.87
2018-01-25T22:05:37.998Z,9.33
2018-01-25T22:08:07.137Z,8.50
2018-01-25T22:10:37.798Z,8.93
2018-01-25T22:13:06.918Z,7.80
2018-01-25T22:15:36.812Z,10.60
2018-01-25T22:20:41.146Z,8.80
2018-01-25T22:23:11.035Z,9.23
2018-01-25T22:25:40.960Z,10.07
2018-01-25T22:28:10.854Z,9.47
2018-01-25T22:30:39.961Z,9.80
2018-01-25T22:33:09.060Z,9.53
2018-01-25T22:35:38.183Z,9.10
2018-01-25T22:38:07.299Z,9.47
2018-01-25T22:40:36.428Z,9.83
2018-01-25T22:43:06.353Z,9.73
2018-01-25T22:45:36.269Z,9.87
2018-01-25T22:48:05.373Z,8.93
2018-01-25T22:50:35.256Z,9.10
2018-01-25T22:53:04.364Z,9.33
2018-01-25T22:55:33.491Z,53.93
2018-01-25T22:58:02.606Z,93.40
2018-01-25T23:00:40.507Z,86.60
2018-01-25T23:03:09.650Z,10.87
2018-01-25T23:05:38.758Z,8.47
2018-01-25T23:08:07.944Z,7.90
2018-01-25T23:10:37.085Z,7.97
2018-01-25T23:13:06.166Z,9.20
2018-01-25T23:15:35.271Z,11.00
2018-01-25T23:18:05.150Z,9.70
2018-01-25T23:20:35.020Z,11.37
2018-01-25T23:23:04.148Z,8.20
2018-01-25T23:25:33.242Z,8.50
2018-01-25T23:28:02.358Z,9.00
2018-01-25T23:30:31.465Z,8.10
2018-01-25T23:33:00.603Z,8.90
2018-01-25T23:35:31.185Z,10.10
2018-01-25T23:38:00.287Z,8.90
2018-01-25T23:40:29.434Z,10.60
2018-01-25T23:42:58.546Z,12.00
2018-01-25T23:45:28.425Z,12.37
2018-01-25T23:47:57.522Z,11.63
2018-01-25T23:50:27.399Z,11.57
2018-01-25T23:52:56.502Z,11.70
2018-01-25T23:55:25.600Z,13.60
2018-01-25T23:57:54.746Z,11.10
